sensor_id;sensor_type;location;lat;lon;timestamp;P1;durP1;ratioP1;P2;durP2;ratioP2
27163;SDS011;14685;50.618;7.024;2023-02-28T00:00:42;6.28;;;3.33;;
27163;SDS011;14685;50.618;7.024;2023-02-28T00:03:10;7.40;;;3.47;;
27163;SDS011;14685;50.618;7.024;2023-02-28T00:05:37;7.60;;;3.33;;
27163;SDS011;14685;50.618;7.024;2023-02-28T00:08:32;7.07;;;2.60;;
27163;SDS011;14685;50.618;7.024;2023-02-28T00:11:41;3.42;;;2.30;;
27163;SDS011;14685;50.618;7.024;2023-02-28T00:22:24;4.15;;;2.50;;
27163;SDS011;14685;50.618;7.024;2023-02-28T00:25:24;4.95;;;3.13;;
27163;SDS011;14685;50.618;7.024;2023-02-28T00:31:15;3.78;;;2.50;;
27163;SDS011;14685;50.618;7.024;2023-02-28T00:33:46;5.63;;;2.67;;
27163;SDS011;14685;50.618;7.024;2023-02-28T00:36:15;5.68;;;2.80;;
27163;SDS011;14685;50.618;7.024;2023-02-28T00:38:47;2.90;;;2.40;;
27163;SDS011;14685;50.618;7.024;2023-02-28T00:41:24;8.07;;;2.70;;
27163;SDS011;14685;50.618;7.024;2023-02-28T00:43:58;5.15;;;2.50;;
27163;SDS011;14685;50.618;7.024;2023-02-28T00:46:29;5.47;;;2.70;;
27163;SDS011;14685;50.618;7.024;2023-02-28T00:48:59;3.58;;;2.65;;
27163;SDS011;14685;50.618;7.024;2023-02-28T00:51:31;6.55;;;2.50;;
27163;SDS011;14685;50.618;7.024;2023-02-28T00:53:58;3.70;;;2.55;;
27163;SDS011;14685;50.618;7.024;2023-02-28T00:56:27;5.65;;;2.67;;
27163;SDS011;14685;50.618;7.024;2023-02-28T00:59:07;6.03;;;2.40;;
27163;SDS011;14685;50.618;7.024;2023-02-28T01:01:57;4.82;;;2.30;;
27163;SDS011;14685;50.618;7.024;2023-02-28T01:04:26;5.30;;;2.92;;
27163;SDS011;14685;50.618;7.024;2023-02-28T01:06:54;4.85;;;2.55;;
27163;SDS011;14685;50.618;7.024;2023-02-28T01:09:21;3.45;;;2.30;;
27163;SDS011;14685;50.618;7.024;2023-02-28T01:11:48;4.05;;;2.47;;
27163;SDS011;14685;50.618;7.024;2023-02-28T01:14:17;6.57;;;2.70;;
27163;SDS011;14685;50.618;7.024;2023-02-28T01:16:44;5.03;;;2.60;;
27163;SDS011;14685;50.618;7.024;2023-02-28T01:19:12;5.03;;;2.22;;
27163;SDS011;14685;50.618;7.024;2023-02-28T01:21:45;5.85;;;2.45;;
27163;SDS011;14685;50.618;7.024;2023-02-28T01:24:12;5.35;;;2.22;;
27163;SDS011;14685;50.618;7.024;2023-02-28T01:26:39;6.10;;;2.63;;
27163;SDS011;14685;50.618;7.024;2023-02-28T01:29:06;3.97;;;2.83;;
27163;SDS011;14685;50.618;7.024;2023-02-28T01:31:33;4.55;;;2.40;;
27163;SDS011;14685;50.618;7.024;2023-02-28T01:34:00;3.33;;;2.15;;
27163;SDS011;14685;50.618;7.024;2023-02-28T01:36:28;3.10;;;2.42;;
27163;SDS011;14685;50.618;7.024;2023-02-28T01:38:55;4.22;;;2.92;;
27163;SDS011;14685;50.618;7.024;2023-02-28T01:41:27;4.57;;;2.67;;
27163;SDS011;14685;50.618;7.024;2023-02-28T01:46:33;5.18;;;2.25;;
27163;SDS011;14685;50.618;7.024;2023-02-28T01:49:03;4.10;;;2.40;;
27163;SDS011;14685;50.618;7.024;2023-02-28T01:51:41;6.38;;;2.70;;
27163;SDS011;14685;50.618;7.024;2023-02-28T01:54:21;3.53;;;2.38;;
27163;SDS011;14685;50.618;7.024;2023-02-28T01:56:57;4.38;;;2.97;;
27163;SDS011;14685;50.618;7.024;2023-02-28T01:59:38;4.28;;;2.40;;
27163;SDS011;14685;50.618;7.024;2023-02-28T02:02:16;6.47;;;2.80;;
27163;SDS011;14685;50.618;7.024;2023-02-28T02:04:50;10.30;;;3.65;;
27163;SDS011;14685;50.618;7.024;2023-02-28T02:07:24;4.15;;;2.83;;
27163;SDS011;14685;50.618;7.024;2023-02-28T02:09:59;5.50;;;2.97;;
27163;SDS011;14685;50.618;7.024;2023-02-28T02:15:54;6.28;;;2.80;;
27163;SDS011;14685;50.618;7.024;2023-02-28T02:21:09;3.55;;;2.30;;
27163;SDS011;14685;50.618;7.024;2023-02-28T02:26:50;3.40;;;2.50;;
27163;SDS011;14685;50.618;7.024;2023-02-28T02:38:09;4.93;;;2.30;;
27163;SDS011;14685;50.618;7.024;2023-02-28T02:40:44;4.40;;;2.55;;
27163;SDS011;14685;50.618;7.024;2023-02-28T02:43:25;5.78;;;2.70;;
27163;SDS011;14685;50.618;7.024;2023-02-28T02:46:04;4.20;;;2.55;;
27163;SDS011;14685;50.618;7.024;2023-02-28T02:48:37;5.55;;;2.90;;
27163;SDS011;14685;50.618;7.024;2023-02-28T02:51:09;3.50;;;2.55;;
27163;SDS011;14685;50.618;7.024;2023-02-28T02:53:47;4.45;;;2.25;;
27163;SDS011;14685;50.618;7.024;2023-02-28T02:56:19;6.07;;;2.83;;
27163;SDS011;14685;50.618;7.024;2023-02-28T02:58:49;5.22;;;3.30;;
27163;SDS011;14685;50.618;7.024;2023-02-28T03:01:19;8.00;;;3.10;;
27163;SDS011;14685;50.618;7.024;2023-02-28T03:03:57;7.90;;;3.08;;
27163;SDS011;14685;50.618;7.024;2023-02-28T03:06:27;4.65;;;3.00;;
27163;SDS011;14685;50.618;7.024;2023-02-28T03:08:55;5.47;;;3.05;;
27163;SDS011;14685;50.618;7.024;2023-02-28T03:11:22;7.47;;;2.78;;
27163;SDS011;14685;50.618;7.024;2023-02-28T03:13:59;3.92;;;2.80;;
27163;SDS011;14685;50.618;7.024;2023-02-28T03:27:18;3.50;;;2.60;;
27163;SDS011;14685;50.618;7.024;2023-02-28T03:33:16;4.63;;;2.50;;
27163;SDS011;14685;50.618;7.024;2023-02-28T03:35:26;3.65;;;2.30;;
27163;SDS011;14685;50.618;7.024;2023-02-28T03:38:22;3.78;;;2.40;;
27163;SDS011;14685;50.618;7.024;2023-02-28T03:41:01;4.38;;;3.17;;
27163;SDS011;14685;50.618;7.024;2023-02-28T03:43:55;5.70;;;2.28;;
27163;SDS011;14685;50.618;7.024;2023-02-28T03:46:27;4.20;;;2.42;;
27163;SDS011;14685;50.618;7.024;2023-02-28T03:49:09;5.38;;;2.85;;
27163;SDS011;14685;50.618;7.024;2023-02-28T03:51:43;5.22;;;3.40;;
27163;SDS011;14685;50.618;7.024;2023-02-28T03:54:15;4.07;;;2.58;;
27163;SDS011;14685;50.618;7.024;2023-02-28T03:56:56;3.28;;;2.45;;
27163;SDS011;14685;50.618;7.024;2023-02-28T03:59:29;4.85;;;2.80;;
27163;SDS011;14685;50.618;7.024;2023-02-28T04:02:04;5.90;;;2.83;;
27163;SDS011;14685;50.618;7.024;2023-02-28T04:04:32;7.25;;;2.70;;
27163;SDS011;14685;50.618;7.024;2023-02-28T04:07:07;3.78;;;2.50;;
27163;SDS011;14685;50.618;7.024;2023-02-28T04:09:37;5.28;;;2.45;;
27163;SDS011;14685;50.618;7.024;2023-02-28T04:12:04;5.35;;;3.17;;
27163;SDS011;14685;50.618;7.024;2023-02-28T04:14:31;5.57;;;2.55;;
27163;SDS011;14685;50.618;7.024;2023-02-28T04:16:58;8.40;;;3.78;;
27163;SDS011;14685;50.618;7.024;2023-02-28T04:19:25;4.60;;;2.72;;
27163;SDS011;14685;50.618;7.024;2023-02-28T04:21:52;5.90;;;2.78;;
27163;SDS011;14685;50.618;7.024;2023-02-28T04:24:22;4.00;;;3.00;;
27163;SDS011;14685;50.618;7.024;2023-02-28T04:26:51;4.20;;;2.33;;
27163;SDS011;14685;50.618;7.024;2023-02-28T04:29:22;4.35;;;2.90;;
27163;SDS011;14685;50.618;7.024;2023-02-28T04:31:51;6.60;;;3.00;;
27163;SDS011;14685;50.618;7.024;2023-02-28T04:34:20;7.40;;;2.85;;
27163;SDS011;14685;50.618;7.024;2023-02-28T04:36:47;3.47;;;2.40;;
27163;SDS011;14685;50.618;7.024;2023-02-28T04:39:37;4.55;;;2.60;;
27163;SDS011;14685;50.618;7.024;2023-02-28T04:42:05;7.88;;;2.83;;
27163;SDS011;14685;50.618;7.024;2023-02-28T04:44:32;4.45;;;2.47;;
27163;SDS011;14685;50.618;7.024;2023-02-28T04:46:59;4.15;;;2.72;;
27163;SDS011;14685;50.618;7.024;2023-02-28T04:49:27;3.55;;;2.72;;
27163;SDS011;14685;50.618;7.024;2023-02-28T04:51:55;5.20;;;2.92;;
27163;SDS011;14685;50.618;7.024;2023-02-28T04:54:21;5.07;;;2.63;;
27163;SDS011;14685;50.618;7.024;2023-02-28T04:56:48;5.38;;;2.75;;
27163;SDS011;14685;50.618;7.024;2023-02-28T04:59:16;4.07;;;2.63;;
27163;SDS011;14685;50.618;7.024;2023-02-28T05:01:45;4.70;;;2.50;;
27163;SDS011;14685;50.618;7.024;2023-02-28T05:04:13;4.70;;;3.10;;
27163;SDS011;14685;50.618;7.024;2023-02-28T05:06:40;3.85;;;2.38;;
27163;SDS011;14685;50.618;7.024;2023-02-28T05:09:08;5.97;;;2.70;;
27163;SDS011;14685;50.618;7.024;2023-02-28T05:11:38;11.40;;;4.90;;
27163;SDS011;14685;50.618;7.024;2023-02-28T05:14:10;4.55;;;2.85;;
27163;SDS011;14685;50.618;7.024;2023-02-28T05:16:39;5.10;;;2.75;;
27163;SDS011;14685;50.618;7.024;2023-02-28T05:19:06;6.55;;;2.80;;
27163;SDS011;14685;50.618;7.024;2023-02-28T05:21:35;6.32;;;2.60;;
27163;SDS011;14685;50.618;7.024;2023-02-28T05:24:05;3.22;;;2.55;;
27163;SDS011;14685;50.618;7.024;2023-02-28T05:26:36;4.97;;;2.70;;
27163;SDS011;14685;50.618;7.024;2023-02-28T05:29:04;2.95;;;2.63;;
27163;SDS011;14685;50.618;7.024;2023-02-28T05:31:32;5.25;;;2.80;;
27163;SDS011;14685;50.618;7.024;2023-02-28T05:33:59;3.65;;;2.42;;
27163;SDS011;14685;50.618;7.024;2023-02-28T05:36:27;6.82;;;2.78;;
27163;SDS011;14685;50.618;7.024;2023-02-28T05:38:54;5.75;;;2.78;;
27163;SDS011;14685;50.618;7.024;2023-02-28T05:41:22;7.65;;;3.35;;
27163;SDS011;14685;50.618;7.024;2023-02-28T05:43:50;10.95;;;3.28;;
27163;SDS011;14685;50.618;7.024;2023-02-28T05:46:17;7.70;;;3.35;;
27163;SDS011;14685;50.618;7.024;2023-02-28T05:48:45;5.07;;;2.60;;
27163;SDS011;14685;50.618;7.024;2023-02-28T05:51:14;6.55;;;3.53;;
27163;SDS011;14685;50.618;7.024;2023-02-28T05:53:41;6.13;;;3.38;;
27163;SDS011;14685;50.618;7.024;2023-02-28T05:56:09;8.25;;;3.80;;
27163;SDS011;14685;50.618;7.024;2023-02-28T05:58:35;5.95;;;4.00;;
27163;SDS011;14685;50.618;7.024;2023-02-28T06:03:59;6.00;;;3.95;;
27163;SDS011;14685;50.618;7.024;2023-02-28T06:06:27;3.85;;;3.13;;
27163;SDS011;14685;50.618;7.024;2023-02-28T06:08:56;3.90;;;2.97;;
27163;SDS011;14685;50.618;7.024;2023-02-28T06:11:23;4.28;;;3.03;;
27163;SDS011;14685;50.618;7.024;2023-02-28T06:13:54;5.53;;;3.53;;
27163;SDS011;14685;50.618;7.024;2023-02-28T06:16:27;3.35;;;2.80;;
27163;SDS011;14685;50.618;7.024;2023-02-28T06:18:56;4.03;;;3.47;;
27163;SDS011;14685;50.618;7.024;2023-02-28T06:21:24;6.63;;;3.55;;
27163;SDS011;14685;50.618;7.024;2023-02-28T06:23:51;5.97;;;3.80;;
27163;SDS011;14685;50.618;7.024;2023-02-28T06:26:19;4.95;;;3.53;;
27163;SDS011;14685;50.618;7.024;2023-02-28T06:28:47;5.88;;;3.42;;
27163;SDS011;14685;50.618;7.024;2023-02-28T06:31:15;6.03;;;3.50;;
27163;SDS011;14685;50.618;7.024;2023-02-28T06:33:45;7.38;;;4.20;;
27163;SDS011;14685;50.618;7.024;2023-02-28T06:36:13;8.32;;;3.88;;
27163;SDS011;14685;50.618;7.024;2023-02-28T06:38:42;8.52;;;4.03;;
27163;SDS011;14685;50.618;7.024;2023-02-28T06:41:10;7.78;;;3.95;;
27163;SDS011;14685;50.618;7.024;2023-02-28T06:43:38;5.57;;;3.53;;
27163;SDS011;14685;50.618;7.024;2023-02-28T06:46:07;11.27;;;4.18;;
27163;SDS011;14685;50.618;7.024;2023-02-28T06:48:36;6.72;;;3.63;;
27163;SDS011;14685;50.618;7.024;2023-02-28T06:51:04;6.25;;;3.78;;
27163;SDS011;14685;50.618;7.024;2023-02-28T06:53:31;10.30;;;4.40;;
27163;SDS011;14685;50.618;7.024;2023-02-28T06:55:58;11.90;;;3.88;;
27163;SDS011;14685;50.618;7.024;2023-02-28T06:58:25;6.03;;;3.50;;
27163;SDS011;14685;50.618;7.024;2023-02-28T07:00:52;8.05;;;3.92;;
27163;SDS011;14685;50.618;7.024;2023-02-28T07:03:20;6.18;;;3.55;;
27163;SDS011;14685;50.618;7.024;2023-02-28T07:05:47;7.20;;;3.55;;
27163;SDS011;14685;50.618;7.024;2023-02-28T07:08:14;7.18;;;3.53;;
27163;SDS011;14685;50.618;7.024;2023-02-28T07:10:41;4.35;;;3.30;;
27163;SDS011;14685;50.618;7.024;2023-02-28T07:13:08;6.72;;;3.72;;
27163;SDS011;14685;50.618;7.024;2023-02-28T07:15:35;8.20;;;3.83;;
27163;SDS011;14685;50.618;7.024;2023-02-28T07:18:06;8.02;;;4.40;;
27163;SDS011;14685;50.618;7.024;2023-02-28T07:20:33;8.75;;;5.28;;
27163;SDS011;14685;50.618;7.024;2023-02-28T07:23:00;8.07;;;4.40;;
27163;SDS011;14685;50.618;7.024;2023-02-28T07:25:28;7.50;;;4.55;;
27163;SDS011;14685;50.618;7.024;2023-02-28T07:27:55;8.85;;;4.03;;
27163;SDS011;14685;50.618;7.024;2023-02-28T07:30:22;10.35;;;4.80;;
27163;SDS011;14685;50.618;7.024;2023-02-28T07:32:49;6.82;;;3.83;;
27163;SDS011;14685;50.618;7.024;2023-02-28T07:35:16;4.40;;;3.38;;
27163;SDS011;14685;50.618;7.024;2023-02-28T07:37:43;5.35;;;3.88;;
27163;SDS011;14685;50.618;7.024;2023-02-28T07:40:10;4.82;;;3.67;;
27163;SDS011;14685;50.618;7.024;2023-02-28T07:42:38;5.15;;;3.42;;
27163;SDS011;14685;50.618;7.024;2023-02-28T07:45:05;5.18;;;3.50;;
27163;SDS011;14685;50.618;7.024;2023-02-28T07:47:33;5.75;;;3.50;;
27163;SDS011;14685;50.618;7.024;2023-02-28T07:50:00;5.35;;;3.40;;
27163;SDS011;14685;50.618;7.024;2023-02-28T07:52:27;5.90;;;3.58;;
27163;SDS011;14685;50.618;7.024;2023-02-28T07:54:54;4.88;;;3.72;;
27163;SDS011;14685;50.618;7.024;2023-02-28T07:57:21;6.38;;;3.58;;
27163;SDS011;14685;50.618;7.024;2023-02-28T07:59:48;5.55;;;3.85;;
27163;SDS011;14685;50.618;7.024;2023-02-28T08:02:15;6.00;;;3.80;;
27163;SDS011;14685;50.618;7.024;2023-02-28T08:04:43;6.18;;;3.83;;
27163;SDS011;14685;50.618;7.024;2023-02-28T08:07:14;4.55;;;3.20;;
27163;SDS011;14685;50.618;7.024;2023-02-28T08:09:42;5.03;;;3.40;;
27163;SDS011;14685;50.618;7.024;2023-02-28T08:12:10;6.80;;;3.58;;
27163;SDS011;14685;50.618;7.024;2023-02-28T08:14:37;4.32;;;3.08;;
27163;SDS011;14685;50.618;7.024;2023-02-28T08:17:05;4.88;;;3.22;;
27163;SDS011;14685;50.618;7.024;2023-02-28T08:19:32;6.90;;;2.90;;
27163;SDS011;14685;50.618;7.024;2023-02-28T08:21:59;4.57;;;3.42;;
27163;SDS011;14685;50.618;7.024;2023-02-28T08:24:26;8.40;;;3.25;;
27163;SDS011;14685;50.618;7.024;2023-02-28T08:26:53;4.88;;;3.30;;
27163;SDS011;14685;50.618;7.024;2023-02-28T08:29:21;4.10;;;3.03;;
27163;SDS011;14685;50.618;7.024;2023-02-28T08:31:48;5.82;;;3.38;;
27163;SDS011;14685;50.618;7.024;2023-02-28T08:34:15;3.95;;;2.83;;
27163;SDS011;14685;50.618;7.024;2023-02-28T08:36:43;4.70;;;3.15;;
27163;SDS011;14685;50.618;7.024;2023-02-28T08:39:12;7.72;;;3.55;;
27163;SDS011;14685;50.618;7.024;2023-02-28T08:41:39;4.72;;;3.28;;
27163;SDS011;14685;50.618;7.024;2023-02-28T08:44:07;5.38;;;3.20;;
27163;SDS011;14685;50.618;7.024;2023-02-28T08:46:34;6.28;;;3.40;;
27163;SDS011;14685;50.618;7.024;2023-02-28T08:49:01;4.20;;;3.30;;
27163;SDS011;14685;50.618;7.024;2023-02-28T08:51:28;5.78;;;2.90;;
27163;SDS011;14685;50.618;7.024;2023-02-28T08:54:00;3.83;;;2.92;;
27163;SDS011;14685;50.618;7.024;2023-02-28T08:56:27;3.22;;;2.63;;
27163;SDS011;14685;50.618;7.024;2023-02-28T08:58:55;3.58;;;2.85;;
27163;SDS011;14685;50.618;7.024;2023-02-28T09:01:27;5.55;;;2.70;;
27163;SDS011;14685;50.618;7.024;2023-02-28T09:03:55;5.68;;;2.72;;
27163;SDS011;14685;50.618;7.024;2023-02-28T09:06:25;7.25;;;2.53;;
27163;SDS011;14685;50.618;7.024;2023-02-28T09:08:55;4.50;;;2.50;;
27163;SDS011;14685;50.618;7.024;2023-02-28T09:11:27;4.97;;;2.88;;
27163;SDS011;14685;50.618;7.024;2023-02-28T09:13:54;3.83;;;2.50;;
27163;SDS011;14685;50.618;7.024;2023-02-28T09:16:25;4.47;;;2.70;;
27163;SDS011;14685;50.618;7.024;2023-02-28T09:18:52;4.25;;;2.60;;
27163;SDS011;14685;50.618;7.024;2023-02-28T09:21:19;3.50;;;2.55;;
27163;SDS011;14685;50.618;7.024;2023-02-28T09:23:47;3.75;;;2.50;;
27163;SDS011;14685;50.618;7.024;2023-02-28T09:26:20;4.80;;;2.65;;
27163;SDS011;14685;50.618;7.024;2023-02-28T09:28:53;3.53;;;2.13;;
27163;SDS011;14685;50.618;7.024;2023-02-28T09:31:24;4.75;;;2.70;;
27163;SDS011;14685;50.618;7.024;2023-02-28T09:33:53;3.78;;;2.53;;
27163;SDS011;14685;50.618;7.024;2023-02-28T09:36:22;7.03;;;2.80;;
27163;SDS011;14685;50.618;7.024;2023-02-28T09:38:59;3.47;;;2.53;;
27163;SDS011;14685;50.618;7.024;2023-02-28T09:41:26;3.63;;;2.67;;
27163;SDS011;14685;50.618;7.024;2023-02-28T09:43:59;4.03;;;2.38;;
27163;SDS011;14685;50.618;7.024;2023-02-28T09:46:39;4.82;;;2.95;;
27163;SDS011;14685;50.618;7.024;2023-02-28T09:49:14;3.42;;;2.55;;
27163;SDS011;14685;50.618;7.024;2023-02-28T09:54:28;4.03;;;2.58;;
27163;SDS011;14685;50.618;7.024;2023-02-28T09:56:58;4.88;;;2.90;;
27163;SDS011;14685;50.618;7.024;2023-02-28T10:05:15;4.18;;;3.30;;
27163;SDS011;14685;50.618;7.024;2023-02-28T10:15:44;5.63;;;2.50;;
27163;SDS011;14685;50.618;7.024;2023-02-28T10:18:13;6.38;;;2.92;;
27163;SDS011;14685;50.618;7.024;2023-02-28T10:20:46;5.18;;;2.50;;
27163;SDS011;14685;50.618;7.024;2023-02-28T10:23:23;4.75;;;2.67;;
27163;SDS011;14685;50.618;7.024;2023-02-28T10:25:59;5.30;;;2.38;;
27163;SDS011;14685;50.618;7.024;2023-02-28T10:28:38;3.70;;;2.75;;
27163;SDS011;14685;50.618;7.024;2023-02-28T10:31:05;4.07;;;2.67;;
27163;SDS011;14685;50.618;7.024;2023-02-28T10:33:41;3.33;;;2.80;;
27163;SDS011;14685;50.618;7.024;2023-02-28T10:36:08;5.45;;;2.78;;
27163;SDS011;14685;50.618;7.024;2023-02-28T10:38:41;4.10;;;3.38;;
27163;SDS011;14685;50.618;7.024;2023-02-28T10:43:39;4.03;;;2.88;;
27163;SDS011;14685;50.618;7.024;2023-02-28T10:48:38;5.60;;;2.42;;
27163;SDS011;14685;50.618;7.024;2023-02-28T10:51:07;2.83;;;2.40;;
27163;SDS011;14685;50.618;7.024;2023-02-28T10:56:26;5.93;;;3.08;;
27163;SDS011;14685;50.618;7.024;2023-02-28T11:01:45;5.18;;;2.60;;
27163;SDS011;14685;50.618;7.024;2023-02-28T11:06:58;4.50;;;2.55;;
27163;SDS011;14685;50.618;7.024;2023-02-28T11:09:32;3.92;;;2.65;;
27163;SDS011;14685;50.618;7.024;2023-02-28T11:12:02;11.43;;;4.38;;
27163;SDS011;14685;50.618;7.024;2023-02-28T11:14:51;4.03;;;2.65;;
27163;SDS011;14685;50.618;7.024;2023-02-28T11:19:49;2.78;;;2.20;;
27163;SDS011;14685;50.618;7.024;2023-02-28T11:22:19;4.40;;;2.78;;
27163;SDS011;14685;50.618;7.024;2023-02-28T11:24:50;4.63;;;2.50;;
27163;SDS011;14685;50.618;7.024;2023-02-28T11:29:58;4.13;;;2.63;;
27163;SDS011;14685;50.618;7.024;2023-02-28T11:32:26;4.13;;;2.80;;
27163;SDS011;14685;50.618;7.024;2023-02-28T11:37:35;2.95;;;2.65;;
27163;SDS011;14685;50.618;7.024;2023-02-28T11:40:13;3.13;;;2.40;;
27163;SDS011;14685;50.618;7.024;2023-02-28T11:42:48;2.70;;;2.42;;
27163;SDS011;14685;50.618;7.024;2023-02-28T11:45:20;3.58;;;2.55;;
27163;SDS011;14685;50.618;7.024;2023-02-28T11:48:23;4.82;;;2.65;;
27163;SDS011;14685;50.618;7.024;2023-02-28T11:53:51;7.45;;;3.70;;
27163;SDS011;14685;50.618;7.024;2023-02-28T11:56:37;9.55;;;4.13;;
27163;SDS011;14685;50.618;7.024;2023-02-28T12:02:18;5.43;;;3.45;;
27163;SDS011;14685;50.618;7.024;2023-02-28T12:05:01;4.47;;;2.83;;
27163;SDS011;14685;50.618;7.024;2023-02-28T12:10:53;7.25;;;3.80;;
27163;SDS011;14685;50.618;7.024;2023-02-28T12:19:16;4.85;;;2.97;;
27163;SDS011;14685;50.618;7.024;2023-02-28T12:27:11;3.45;;;2.60;;
27163;SDS011;14685;50.618;7.024;2023-02-28T12:29:47;3.70;;;2.45;;
27163;SDS011;14685;50.618;7.024;2023-02-28T12:34:53;5.75;;;2.88;;
27163;SDS011;14685;50.618;7.024;2023-02-28T12:40:01;3.03;;;2.65;;
27163;SDS011;14685;50.618;7.024;2023-02-28T12:42:34;5.72;;;2.80;;
27163;SDS011;14685;50.618;7.024;2023-02-28T12:45:17;5.03;;;3.00;;
27163;SDS011;14685;50.618;7.024;2023-02-28T12:48:01;3.72;;;2.75;;
27163;SDS011;14685;50.618;7.024;2023-02-28T12:53:02;4.03;;;2.53;;
27163;SDS011;14685;50.618;7.024;2023-02-28T12:58:23;4.38;;;3.05;;
27163;SDS011;14685;50.618;7.024;2023-02-28T13:01:15;4.65;;;2.72;;
27163;SDS011;14685;50.618;7.024;2023-02-28T13:06:55;5.22;;;2.85;;
27163;SDS011;14685;50.618;7.024;2023-02-28T13:09:26;4.65;;;3.20;;
27163;SDS011;14685;50.618;7.024;2023-02-28T13:11:55;4.70;;;2.63;;
27163;SDS011;14685;50.618;7.024;2023-02-28T13:14:25;4.53;;;2.67;;
27163;SDS011;14685;50.618;7.024;2023-02-28T13:16:59;6.93;;;3.33;;
27163;SDS011;14685;50.618;7.024;2023-02-28T13:19:30;7.10;;;3.15;;
27163;SDS011;14685;50.618;7.024;2023-02-28T13:22:00;4.28;;;2.80;;
27163;SDS011;14685;50.618;7.024;2023-02-28T13:27:32;4.22;;;3.10;;
27163;SDS011;14685;50.618;7.024;2023-02-28T13:33:17;4.03;;;3.10;;
27163;SDS011;14685;50.618;7.024;2023-02-28T13:41:57;4.63;;;3.05;;
27163;SDS011;14685;50.618;7.024;2023-02-28T13:47:39;6.35;;;2.83;;
27163;SDS011;14685;50.618;7.024;2023-02-28T13:58:43;5.90;;;2.92;;
27163;SDS011;14685;50.618;7.024;2023-02-28T14:01:44;5.50;;;3.35;;
27163;SDS011;14685;50.618;7.024;2023-02-28T14:06:58;5.40;;;3.17;;
27163;SDS011;14685;50.618;7.024;2023-02-28T14:09:40;4.82;;;3.13;;
27163;SDS011;14685;50.618;7.024;2023-02-28T14:18:02;5.05;;;3.72;;
27163;SDS011;14685;50.618;7.024;2023-02-28T14:20:33;6.97;;;3.40;;
27163;SDS011;14685;50.618;7.024;2023-02-28T14:23:06;5.85;;;3.50;;
27163;SDS011;14685;50.618;7.024;2023-02-28T14:25:41;4.32;;;3.88;;
27163;SDS011;14685;50.618;7.024;2023-02-28T14:28:36;4.57;;;3.67;;
27163;SDS011;14685;50.618;7.024;2023-02-28T14:31:41;4.60;;;3.63;;
27163;SDS011;14685;50.618;7.024;2023-02-28T14:39:43;5.50;;;3.53;;
27163;SDS011;14685;50.618;7.024;2023-02-28T14:45:17;4.95;;;3.70;;
27163;SDS011;14685;50.618;7.024;2023-02-28T14:47:46;8.75;;;3.60;;
27163;SDS011;14685;50.618;7.024;2023-02-28T14:50:19;5.65;;;3.55;;
27163;SDS011;14685;50.618;7.024;2023-02-28T14:52:50;6.28;;;4.22;;
27163;SDS011;14685;50.618;7.024;2023-02-28T14:55:19;4.13;;;3.47;;
27163;SDS011;14685;50.618;7.024;2023-02-28T14:57:54;5.00;;;3.40;;
27163;SDS011;14685;50.618;7.024;2023-02-28T15:00:27;5.47;;;3.65;;
27163;SDS011;14685;50.618;7.024;2023-02-28T15:02:56;6.87;;;4.07;;
27163;SDS011;14685;50.618;7.024;2023-02-28T15:08:00;6.68;;;4.20;;
27163;SDS011;14685;50.618;7.024;2023-02-28T15:10:33;6.68;;;3.80;;
27163;SDS011;14685;50.618;7.024;2023-02-28T15:13:02;4.93;;;3.85;;
27163;SDS011;14685;50.618;7.024;2023-02-28T15:18:46;5.32;;;4.10;;
27163;SDS011;14685;50.618;7.024;2023-02-28T15:21:36;5.32;;;4.10;;
27163;SDS011;14685;50.618;7.024;2023-02-28T15:24:14;5.30;;;4.03;;
27163;SDS011;14685;50.618;7.024;2023-02-28T15:26:51;5.43;;;4.15;;
27163;SDS011;14685;50.618;7.024;2023-02-28T15:29:23;3.88;;;3.35;;
27163;SDS011;14685;50.618;7.024;2023-02-28T15:31:57;6.53;;;4.10;;
27163;SDS011;14685;50.618;7.024;2023-02-28T15:34:39;5.38;;;4.28;;
27163;SDS011;14685;50.618;7.024;2023-02-28T15:40:04;5.10;;;4.10;;
27163;SDS011;14685;50.618;7.024;2023-02-28T15:43:00;4.53;;;3.90;;
27163;SDS011;14685;50.618;7.024;2023-02-28T15:45:35;5.35;;;4.32;;
27163;SDS011;14685;50.618;7.024;2023-02-28T15:48:20;5.95;;;4.05;;
27163;SDS011;14685;50.618;7.024;2023-02-28T15:50:51;5.75;;;4.75;;
27163;SDS011;14685;50.618;7.024;2023-02-28T15:53:22;7.82;;;4.05;;
27163;SDS011;14685;50.618;7.024;2023-02-28T15:56:06;5.35;;;4.50;;
27163;SDS011;14685;50.618;7.024;2023-02-28T15:58:47;11.32;;;4.57;;
27163;SDS011;14685;50.618;7.024;2023-02-28T16:01:24;5.43;;;4.13;;
27163;SDS011;14685;50.618;7.024;2023-02-28T16:06:38;5.28;;;3.85;;
27163;SDS011;14685;50.618;7.024;2023-02-28T16:14:12;7.45;;;4.38;;
27163;SDS011;14685;50.618;7.024;2023-02-28T16:16:45;6.57;;;4.30;;
27163;SDS011;14685;50.618;7.024;2023-02-28T16:19:15;6.23;;;4.47;;
27163;SDS011;14685;50.618;7.024;2023-02-28T16:21:43;7.15;;;4.68;;
27163;SDS011;14685;50.618;7.024;2023-02-28T16:24:11;6.43;;;3.50;;
27163;SDS011;14685;50.618;7.024;2023-02-28T16:26:39;11.73;;;4.30;;
27163;SDS011;14685;50.618;7.024;2023-02-28T16:29:09;9.75;;;4.22;;
27163;SDS011;14685;50.618;7.024;2023-02-28T16:31:40;5.78;;;4.35;;
27163;SDS011;14685;50.618;7.024;2023-02-28T16:34:07;9.68;;;4.20;;
27163;SDS011;14685;50.618;7.024;2023-02-28T16:36:34;8.45;;;5.47;;
27163;SDS011;14685;50.618;7.024;2023-02-28T16:39:01;11.90;;;6.18;;
27163;SDS011;14685;50.618;7.024;2023-02-28T16:41:29;7.68;;;5.53;;
27163;SDS011;14685;50.618;7.024;2023-02-28T16:43:57;6.40;;;4.35;;
27163;SDS011;14685;50.618;7.024;2023-02-28T16:46:33;8.30;;;5.10;;
27163;SDS011;14685;50.618;7.024;2023-02-28T16:49:01;12.73;;;5.75;;
27163;SDS011;14685;50.618;7.024;2023-02-28T16:51:29;27.92;;;5.47;;
27163;SDS011;14685;50.618;7.024;2023-02-28T16:54:00;7.07;;;5.00;;
27163;SDS011;14685;50.618;7.024;2023-02-28T16:56:27;7.43;;;5.05;;
27163;SDS011;14685;50.618;7.024;2023-02-28T16:58:54;6.10;;;4.50;;
27163;SDS011;14685;50.618;7.024;2023-02-28T17:01:25;5.57;;;4.53;;
27163;SDS011;14685;50.618;7.024;2023-02-28T17:03:54;8.07;;;4.90;;
27163;SDS011;14685;50.618;7.024;2023-02-28T17:06:25;7.55;;;4.55;;
27163;SDS011;14685;50.618;7.024;2023-02-28T17:08:58;8.80;;;4.70;;
27163;SDS011;14685;50.618;7.024;2023-02-28T17:11:26;6.97;;;5.10;;
27163;SDS011;14685;50.618;7.024;2023-02-28T17:13:54;29.50;;;11.45;;
27163;SDS011;14685;50.618;7.024;2023-02-28T17:18:51;9.75;;;6.80;;
27163;SDS011;14685;50.618;7.024;2023-02-28T17:21:20;9.43;;;5.22;;
27163;SDS011;14685;50.618;7.024;2023-02-28T17:23:47;11.02;;;5.05;;
27163;SDS011;14685;50.618;7.024;2023-02-28T17:28:44;6.65;;;5.75;;
27163;SDS011;14685;50.618;7.024;2023-02-28T17:31:14;8.47;;;4.60;;
27163;SDS011;14685;50.618;7.024;2023-02-28T17:36:18;7.55;;;5.60;;
27163;SDS011;14685;50.618;7.024;2023-02-28T17:41:16;8.68;;;6.25;;
27163;SDS011;14685;50.618;7.024;2023-02-28T17:43:43;9.90;;;6.20;;
27163;SDS011;14685;50.618;7.024;2023-02-28T17:46:14;7.57;;;5.88;;
27163;SDS011;14685;50.618;7.024;2023-02-28T17:53:39;10.73;;;5.70;;
27163;SDS011;14685;50.618;7.024;2023-02-28T17:56:15;10.27;;;6.50;;
27163;SDS011;14685;50.618;7.024;2023-02-28T18:01:14;10.30;;;5.50;;
27163;SDS011;14685;50.618;7.024;2023-02-28T18:03:41;8.15;;;5.80;;
27163;SDS011;14685;50.618;7.024;2023-02-28T18:08:45;11.20;;;6.10;;
27163;SDS011;14685;50.618;7.024;2023-02-28T18:13:44;9.40;;;5.50;;
27163;SDS011;14685;50.618;7.024;2023-02-28T18:18:39;7.50;;;6.10;;
27163;SDS011;14685;50.618;7.024;2023-02-28T18:38:28;10.70;;;5.95;;
27163;SDS011;14685;50.618;7.024;2023-02-28T18:43:25;8.80;;;4.60;;
27163;SDS011;14685;50.618;7.024;2023-02-28T18:48:19;7.45;;;4.70;;
27163;SDS011;14685;50.618;7.024;2023-02-28T18:50:49;8.20;;;5.00;;
27163;SDS011;14685;50.618;7.024;2023-02-28T18:53:17;8.60;;;5.60;;
27163;SDS011;14685;50.618;7.024;2023-02-28T18:55:47;9.73;;;5.50;;
27163;SDS011;14685;50.618;7.024;2023-02-28T18:58:14;16.88;;;5.82;;